Carmen, Argentina
Current Conditions -  °F | °C
As of 5:00 PM on Thursday 27 Nov 2014 (Local Time) from SAAR Reporting Station
Clear Clear  
Wind Chill: 86°   Ceiling: Unl
Heat Index: 86°   Visibility: 6mi
Dew Point: 50°   Wind: 9mph
Humidity: 29%   Direction: 70°ENE
Pressure: 29.88"   Gusts: NA
Location:  33.73°S, 61.75°W
Report Text: SAAR 272000Z 07008KT CAVOK 30/10 Q1012
Loading
Personal Weather Stations






























Interactive Weather Map New forecast layout! Learn more

10-Day Weather Forecast

Advertisements
Track Severe Weather on mobile